sensor_id;sensor_type;location;lat;lon;timestamp;pressure;altitude;pressure_sealevel;temperature;humidity
71043;BME280;58696;52.134;5.500;2023-02-28T00:01:34;103342.56;;;0.47;86.21
71043;BME280;58696;52.134;5.500;2023-02-28T00:04:03;103348.38;;;0.51;86.24
71043;BME280;58696;52.134;5.500;2023-02-28T00:06:30;103343.19;;;0.54;86.26
71043;BME280;58696;52.134;5.500;2023-02-28T00:08:57;103343.09;;;0.57;86.25
71043;BME280;58696;52.134;5.500;2023-02-28T00:11:23;103342.09;;;0.61;86.24
71043;BME280;58696;52.134;5.500;2023-02-28T00:13:50;103347.03;;;0.64;86.38
71043;BME280;58696;52.134;5.500;2023-02-28T00:16:20;103359.53;;;0.69;86.28
71043;BME280;58696;52.134;5.500;2023-02-28T00:18:48;103350.13;;;0.72;86.30
71043;BME280;58696;52.134;5.500;2023-02-28T00:21:16;103349.16;;;0.76;86.16
71043;BME280;58696;52.134;5.500;2023-02-28T00:23:43;103357.41;;;0.82;86.14
71043;BME280;58696;52.134;5.500;2023-02-28T00:26:10;103353.09;;;0.84;85.86
71043;BME280;58696;52.134;5.500;2023-02-28T00:28:41;103346.38;;;0.83;85.83
71043;BME280;58696;52.134;5.500;2023-02-28T00:31:10;103342.97;;;0.84;86.04
71043;BME280;58696;52.134;5.500;2023-02-28T00:33:36;103342.00;;;0.86;85.97
71043;BME280;58696;52.134;5.500;2023-02-28T00:36:08;103341.03;;;0.90;85.87
71043;BME280;58696;52.134;5.500;2023-02-28T00:38:37;103344.38;;;0.91;85.99
71043;BME280;58696;52.134;5.500;2023-02-28T00:41:04;103342.63;;;0.93;85.83
71043;BME280;58696;52.134;5.500;2023-02-28T00:43:35;103338.25;;;0.96;85.87
71043;BME280;58696;52.134;5.500;2023-02-28T00:46:02;103337.50;;;0.94;85.92
71043;BME280;58696;52.134;5.500;2023-02-28T00:48:32;103349.28;;;0.95;85.85
71043;BME280;58696;52.134;5.500;2023-02-28T00:50:59;103341.63;;;0.97;86.05
71043;BME280;58696;52.134;5.500;2023-02-28T00:53:31;103348.28;;;0.99;86.00
71043;BME280;58696;52.134;5.500;2023-02-28T00:56:02;103339.81;;;1.00;86.00
71043;BME280;58696;52.134;5.500;2023-02-28T00:58:30;103337.16;;;1.03;85.97
71043;BME280;58696;52.134;5.500;2023-02-28T01:00:57;103341.28;;;1.06;86.29
71043;BME280;58696;52.134;5.500;2023-02-28T01:03:26;103342.81;;;1.10;85.77
71043;BME280;58696;52.134;5.500;2023-02-28T01:05:52;103345.38;;;1.09;85.94
71043;BME280;58696;52.134;5.500;2023-02-28T01:08:21;103341.19;;;1.09;85.84
71043;BME280;58696;52.134;5.500;2023-02-28T01:10:48;103346.09;;;1.12;85.80
71043;BME280;58696;52.134;5.500;2023-02-28T01:13:18;103350.19;;;1.16;85.84
71043;BME280;58696;52.134;5.500;2023-02-28T01:15:51;103342.50;;;1.18;85.92
71043;BME280;58696;52.134;5.500;2023-02-28T01:18:19;103346.69;;;1.19;85.76
71043;BME280;58696;52.134;5.500;2023-02-28T01:20:45;103344.97;;;1.19;85.77
71043;BME280;58696;52.134;5.500;2023-02-28T01:23:15;103344.16;;;1.19;85.87
71043;BME280;58696;52.134;5.500;2023-02-28T01:25:44;103337.38;;;1.19;85.87
71043;BME280;58696;52.134;5.500;2023-02-28T01:28:13;103329.75;;;1.21;85.88
71043;BME280;58696;52.134;5.500;2023-02-28T01:30:42;103332.97;;;1.24;85.86
71043;BME280;58696;52.134;5.500;2023-02-28T01:33:09;103334.56;;;1.27;85.66
71043;BME280;58696;52.134;5.500;2023-02-28T01:35:36;103334.44;;;1.30;85.68
71043;BME280;58696;52.134;5.500;2023-02-28T01:38:02;103326.84;;;1.30;85.60
71043;BME280;58696;52.134;5.500;2023-02-28T01:40:46;103334.41;;;1.31;85.59
71043;BME280;58696;52.134;5.500;2023-02-28T01:46:10;103332.38;;;1.40;85.31
71043;BME280;58696;52.134;5.500;2023-02-28T01:48:45;103325.59;;;1.40;85.35
71043;BME280;58696;52.134;5.500;2023-02-28T01:51:21;103320.53;;;1.40;85.37
71043;BME280;58696;52.134;5.500;2023-02-28T01:53:55;103320.41;;;1.43;85.40
71043;BME280;58696;52.134;5.500;2023-02-28T01:56:28;103316.06;;;1.47;85.38
71043;BME280;58696;52.134;5.500;2023-02-28T01:58:58;103315.16;;;1.48;85.36
71043;BME280;58696;52.134;5.500;2023-02-28T02:01:26;103310.09;;;1.48;85.26
71043;BME280;58696;52.134;5.500;2023-02-28T02:04:01;103311.75;;;1.49;85.25
71043;BME280;58696;52.134;5.500;2023-02-28T02:06:39;103308.31;;;1.50;85.22
71043;BME280;58696;52.134;5.500;2023-02-28T02:09:06;103308.38;;;1.48;85.37
71043;BME280;58696;52.134;5.500;2023-02-28T02:11:35;103302.50;;;1.48;85.28
71043;BME280;58696;52.134;5.500;2023-02-28T02:17:14;103302.53;;;1.46;85.61
71043;BME280;58696;52.134;5.500;2023-02-28T02:25:21;103301.03;;;1.42;85.72
71043;BME280;58696;52.134;5.500;2023-02-28T02:27:56;103314.53;;;1.43;85.71
71043;BME280;58696;52.134;5.500;2023-02-28T02:39:23;103305.78;;;1.50;85.92
71043;BME280;58696;52.134;5.500;2023-02-28T02:41:59;103305.72;;;1.51;85.95
71043;BME280;58696;52.134;5.500;2023-02-28T02:47:27;103306.53;;;1.52;86.07
71043;BME280;58696;52.134;5.500;2023-02-28T02:49:59;103313.28;;;1.53;86.15
71043;BME280;58696;52.134;5.500;2023-02-28T02:52:36;103309.84;;;1.54;86.12
71043;BME280;58696;52.134;5.500;2023-02-28T02:55:06;103313.13;;;1.56;86.11
71043;BME280;58696;52.134;5.500;2023-02-28T02:57:51;103303.00;;;1.56;86.06
71043;BME280;58696;52.134;5.500;2023-02-28T03:00:21;103304.66;;;1.57;86.13
71043;BME280;58696;52.134;5.500;2023-02-28T03:02:52;103307.97;;;1.59;86.19
71043;BME280;58696;52.134;5.500;2023-02-28T03:05:33;103313.03;;;1.59;86.20
71043;BME280;58696;52.134;5.500;2023-02-28T03:08:04;103308.78;;;1.60;86.13
71043;BME280;58696;52.134;5.500;2023-02-28T03:10:38;103319.63;;;1.63;86.08
71043;BME280;58696;52.134;5.500;2023-02-28T03:13:18;103314.50;;;1.65;86.13
71043;BME280;58696;52.134;5.500;2023-02-28T03:24:11;103311.78;;;1.69;86.04
71043;BME280;58696;52.134;5.500;2023-02-28T03:26:54;103316.69;;;1.72;85.94
71043;BME280;58696;52.134;5.500;2023-02-28T03:33:13;103316.31;;;1.81;86.01
71043;BME280;58696;52.134;5.500;2023-02-28T03:36:12;103317.06;;;1.83;85.90
71043;BME280;58696;52.134;5.500;2023-02-28T03:41:42;103321.22;;;1.86;85.83
71043;BME280;58696;52.134;5.500;2023-02-28T03:44:05;103322.94;;;1.86;85.79
71043;BME280;58696;52.134;5.500;2023-02-28T03:46:36;103326.31;;;1.84;85.81
71043;BME280;58696;52.134;5.500;2023-02-28T03:49:17;103327.22;;;1.83;86.02
71043;BME280;58696;52.134;5.500;2023-02-28T03:51:49;103325.56;;;1.82;85.82
71043;BME280;58696;52.134;5.500;2023-02-28T03:54:31;103337.44;;;1.82;85.66
71043;BME280;58696;52.134;5.500;2023-02-28T03:57:28;103335.72;;;1.82;85.63
71043;BME280;58696;52.134;5.500;2023-02-28T04:00:21;103329.75;;;1.83;85.37
71043;BME280;58696;52.134;5.500;2023-02-28T04:02:53;103334.81;;;1.83;85.32
71043;BME280;58696;52.134;5.500;2023-02-28T04:05:22;103333.09;;;1.84;84.79
71043;BME280;58696;52.134;5.500;2023-02-28T04:07:54;103325.47;;;1.86;84.76
71043;BME280;58696;52.134;5.500;2023-02-28T04:10:29;103327.22;;;1.83;84.22
71043;BME280;58696;52.134;5.500;2023-02-28T04:12:58;103336.47;;;1.84;83.73
71043;BME280;58696;52.134;5.500;2023-02-28T04:15:24;103335.72;;;1.82;82.96
71043;BME280;58696;52.134;5.500;2023-02-28T04:17:56;103339.25;;;1.78;81.83
71043;BME280;58696;52.134;5.500;2023-02-28T04:20:27;103325.09;;;1.74;81.08
71043;BME280;58696;52.134;5.500;2023-02-28T04:22:54;103334.44;;;1.72;80.37
71043;BME280;58696;52.134;5.500;2023-02-28T04:25:20;103330.19;;;1.73;80.46
71043;BME280;58696;52.134;5.500;2023-02-28T04:27:49;103343.03;;;1.68;80.53
71043;BME280;58696;52.134;5.500;2023-02-28T04:30:16;103334.63;;;1.68;80.76
71043;BME280;58696;52.134;5.500;2023-02-28T04:32:44;103343.28;;;1.62;79.74
71043;BME280;58696;52.134;5.500;2023-02-28T04:35:11;103343.38;;;1.61;79.88
71043;BME280;58696;52.134;5.500;2023-02-28T04:37:37;103345.09;;;1.60;80.12
71043;BME280;58696;52.134;5.500;2023-02-28T04:40:04;103345.16;;;1.58;80.43
71043;BME280;58696;52.134;5.500;2023-02-28T04:42:33;103346.09;;;1.56;80.47
71043;BME280;58696;52.134;5.500;2023-02-28T04:45:04;103352.09;;;1.53;80.58
71043;BME280;58696;52.134;5.500;2023-02-28T04:47:31;103349.75;;;1.49;80.69
71043;BME280;58696;52.134;5.500;2023-02-28T04:49:57;103347.31;;;1.46;80.87
71043;BME280;58696;52.134;5.500;2023-02-28T04:52:27;103342.41;;;1.43;81.04
71043;BME280;58696;52.134;5.500;2023-02-28T04:54:54;103353.53;;;1.39;81.02
71043;BME280;58696;52.134;5.500;2023-02-28T04:57:25;103341.84;;;1.35;81.14
71043;BME280;58696;52.134;5.500;2023-02-28T04:59:52;103343.81;;;1.28;81.34
71043;BME280;58696;52.134;5.500;2023-02-28T05:02:21;103348.22;;;1.23;81.80
71043;BME280;58696;52.134;5.500;2023-02-28T05:04:52;103339.22;;;1.16;82.37
71043;BME280;58696;52.134;5.500;2023-02-28T05:07:19;103336.03;;;1.11;82.62
71043;BME280;58696;52.134;5.500;2023-02-28T05:09:46;103340.38;;;1.07;83.04
71043;BME280;58696;52.134;5.500;2023-02-28T05:12:12;103338.84;;;1.03;83.44
71043;BME280;58696;52.134;5.500;2023-02-28T05:14:42;103338.84;;;1.03;83.65
71043;BME280;58696;52.134;5.500;2023-02-28T05:17:13;103344.94;;;0.99;84.06
71043;BME280;58696;52.134;5.500;2023-02-28T05:19:39;103348.38;;;0.96;84.07
71043;BME280;58696;52.134;5.500;2023-02-28T05:22:13;103352.63;;;0.96;84.28
71043;BME280;58696;52.134;5.500;2023-02-28T05:24:41;103349.22;;;0.97;84.54
71043;BME280;58696;52.134;5.500;2023-02-28T05:27:08;103350.88;;;0.98;84.50
71043;BME280;58696;52.134;5.500;2023-02-28T05:29:38;103356.78;;;0.98;84.66
71043;BME280;58696;52.134;5.500;2023-02-28T05:32:10;103347.56;;;0.96;84.72
71043;BME280;58696;52.134;5.500;2023-02-28T05:34:38;103346.03;;;0.92;84.85
71043;BME280;58696;52.134;5.500;2023-02-28T05:37:06;103344.22;;;0.95;85.04
71043;BME280;58696;52.134;5.500;2023-02-28T05:39:33;103335.69;;;0.98;85.24
71043;BME280;58696;52.134;5.500;2023-02-28T05:42:04;103331.66;;;0.92;85.16
71043;BME280;58696;52.134;5.500;2023-02-28T05:44:31;103335.25;;;0.87;85.39
71043;BME280;58696;52.134;5.500;2023-02-28T05:46:57;103346.25;;;0.86;85.32
71043;BME280;58696;52.134;5.500;2023-02-28T05:49:26;103337.09;;;0.83;85.49
71043;BME280;58696;52.134;5.500;2023-02-28T05:51:53;103351.31;;;0.86;85.61
71043;BME280;58696;52.134;5.500;2023-02-28T05:54:22;103349.59;;;0.86;85.46
71043;BME280;58696;52.134;5.500;2023-02-28T05:56:51;103348.75;;;0.87;85.61
71043;BME280;58696;52.134;5.500;2023-02-28T05:59:20;103346.22;;;0.87;85.82
71043;BME280;58696;52.134;5.500;2023-02-28T06:01:49;103342.00;;;0.86;86.05
71043;BME280;58696;52.134;5.500;2023-02-28T06:04:20;103333.72;;;0.83;86.13
71043;BME280;58696;52.134;5.500;2023-02-28T06:06:57;103344.09;;;0.76;86.21
71043;BME280;58696;52.134;5.500;2023-02-28T06:09:26;103344.28;;;0.70;86.58
71043;BME280;58696;52.134;5.500;2023-02-28T06:11:53;103350.34;;;0.66;86.70
71043;BME280;58696;52.134;5.500;2023-02-28T06:14:20;103343.69;;;0.64;87.08
71043;BME280;58696;52.134;5.500;2023-02-28T06:16:50;103346.44;;;0.58;87.42
71043;BME280;58696;52.134;5.500;2023-02-28T06:19:17;103350.00;;;0.52;87.67
71043;BME280;58696;52.134;5.500;2023-02-28T06:21:50;103350.84;;;0.52;87.86
71043;BME280;58696;52.134;5.500;2023-02-28T06:24:19;103331.63;;;0.47;88.09
71043;BME280;58696;52.134;5.500;2023-02-28T06:26:48;103335.94;;;0.45;88.35
71043;BME280;58696;52.134;5.500;2023-02-28T06:29:17;103333.50;;;0.42;88.57
71043;BME280;58696;52.134;5.500;2023-02-28T06:31:46;103335.22;;;0.41;88.75
71043;BME280;58696;52.134;5.500;2023-02-28T06:34:15;103331.78;;;0.42;88.99
71043;BME280;58696;52.134;5.500;2023-02-28T06:36:42;103342.72;;;0.43;89.38
71043;BME280;58696;52.134;5.500;2023-02-28T06:39:09;103351.28;;;0.40;89.59
71043;BME280;58696;52.134;5.500;2023-02-28T06:41:38;103348.63;;;0.43;89.62
71043;BME280;58696;52.134;5.500;2023-02-28T06:44:20;103350.06;;;0.50;89.62
71043;BME280;58696;52.134;5.500;2023-02-28T06:46:48;103348.22;;;0.56;89.56
71043;BME280;58696;52.134;5.500;2023-02-28T06:49:17;103340.31;;;0.63;89.69
71043;BME280;58696;52.134;5.500;2023-02-28T06:51:46;103344.56;;;0.63;89.52
71043;BME280;58696;52.134;5.500;2023-02-28T06:54:16;103352.16;;;0.63;89.67
71043;BME280;58696;52.134;5.500;2023-02-28T06:56:45;103351.25;;;0.65;89.60
71043;BME280;58696;52.134;5.500;2023-02-28T06:59:14;103364.59;;;0.69;89.75
71043;BME280;58696;52.134;5.500;2023-02-28T07:01:45;103365.53;;;0.66;89.68
71043;BME280;58696;52.134;5.500;2023-02-28T07:04:12;103364.09;;;0.59;89.93
71043;BME280;58696;52.134;5.500;2023-02-28T07:06:40;103366.53;;;0.62;89.99
71043;BME280;58696;52.134;5.500;2023-02-28T07:09:07;103363.84;;;0.67;90.13
71043;BME280;58696;52.134;5.500;2023-02-28T07:11:34;103370.44;;;0.71;90.12
71043;BME280;58696;52.134;5.500;2023-02-28T07:14:03;103366.91;;;0.75;90.22
71043;BME280;58696;52.134;5.500;2023-02-28T07:16:31;103360.13;;;0.75;90.16
71043;BME280;58696;52.134;5.500;2023-02-28T07:18:58;103365.91;;;0.79;90.26
71043;BME280;58696;52.134;5.500;2023-02-28T07:21:25;103369.19;;;0.81;90.24
71043;BME280;58696;52.134;5.500;2023-02-28T07:23:51;103372.16;;;0.92;90.28
71043;BME280;58696;52.134;5.500;2023-02-28T07:26:23;103378.09;;;0.91;90.11
71043;BME280;58696;52.134;5.500;2023-02-28T07:28:49;103374.06;;;0.87;89.95
71043;BME280;58696;52.134;5.500;2023-02-28T07:31:17;103380.78;;;0.88;89.80
71043;BME280;58696;52.134;5.500;2023-02-28T07:33:46;103366.25;;;0.93;89.90
71043;BME280;58696;52.134;5.500;2023-02-28T07:36:16;103374.28;;;1.03;89.68
71043;BME280;58696;52.134;5.500;2023-02-28T07:38:46;103370.13;;;1.02;89.55
71043;BME280;58696;52.134;5.500;2023-02-28T07:41:21;103380.22;;;1.03;89.55
71043;BME280;58696;52.134;5.500;2023-02-28T07:43:48;103375.38;;;1.19;89.52
71043;BME280;58696;52.134;5.500;2023-02-28T07:46:17;103384.25;;;1.31;89.03
71043;BME280;58696;52.134;5.500;2023-02-28T07:48:44;103384.75;;;1.39;89.09
71043;BME280;58696;52.134;5.500;2023-02-28T07:51:11;103391.22;;;1.46;88.81
71043;BME280;58696;52.134;5.500;2023-02-28T07:53:38;103385.16;;;1.50;88.29
71043;BME280;58696;52.134;5.500;2023-02-28T07:56:05;103378.22;;;1.55;88.26
71043;BME280;58696;52.134;5.500;2023-02-28T07:58:33;103384.03;;;1.57;87.94
71043;BME280;58696;52.134;5.500;2023-02-28T08:01:10;103381.13;;;1.67;88.24
71043;BME280;58696;52.134;5.500;2023-02-28T08:03:38;103386.31;;;1.86;87.67
71043;BME280;58696;52.134;5.500;2023-02-28T08:06:16;103389.59;;;1.88;87.45
71043;BME280;58696;52.134;5.500;2023-02-28T08:08:48;103398.66;;;1.93;87.49
71043;BME280;58696;52.134;5.500;2023-02-28T08:11:17;103402.56;;;2.02;87.28
71043;BME280;58696;52.134;5.500;2023-02-28T08:13:44;103397.59;;;1.99;86.99
71043;BME280;58696;52.134;5.500;2023-02-28T08:16:12;103403.22;;;2.05;86.71
71043;BME280;58696;52.134;5.500;2023-02-28T08:18:50;103410.81;;;2.07;86.11
71043;BME280;58696;52.134;5.500;2023-02-28T08:21:17;103412.31;;;2.11;85.72
71043;BME280;58696;52.134;5.500;2023-02-28T08:23:47;103400.41;;;2.13;84.69
71043;BME280;58696;52.134;5.500;2023-02-28T08:26:17;103397.03;;;2.13;83.58
71043;BME280;58696;52.134;5.500;2023-02-28T08:28:47;103408.50;;;2.21;82.53
71043;BME280;58696;52.134;5.500;2023-02-28T08:31:16;103405.66;;;2.29;81.94
71043;BME280;58696;52.134;5.500;2023-02-28T08:33:45;103387.63;;;2.35;81.29
71043;BME280;58696;52.134;5.500;2023-02-28T08:36:13;103391.66;;;2.39;80.35
71043;BME280;58696;52.134;5.500;2023-02-28T08:38:42;103393.19;;;2.43;79.87
71043;BME280;58696;52.134;5.500;2023-02-28T08:41:12;103400.75;;;2.45;77.47
71043;BME280;58696;52.134;5.500;2023-02-28T08:43:39;103389.84;;;2.43;76.71
71043;BME280;58696;52.134;5.500;2023-02-28T08:46:08;103392.00;;;2.52;75.80
71043;BME280;58696;52.134;5.500;2023-02-28T08:48:41;103391.59;;;2.61;75.41
71043;BME280;58696;52.134;5.500;2023-02-28T08:51:11;103391.81;;;2.75;74.31
71043;BME280;58696;52.134;5.500;2023-02-28T08:53:42;103395.59;;;2.85;74.01
71043;BME280;58696;52.134;5.500;2023-02-28T08:56:13;103388.03;;;3.03;73.28
71043;BME280;58696;52.134;5.500;2023-02-28T08:58:40;103394.47;;;3.29;73.00
71043;BME280;58696;52.134;5.500;2023-02-28T09:01:13;103389.84;;;4.23;67.13
71043;BME280;58696;52.134;5.500;2023-02-28T09:03:43;103387.28;;;4.90;64.86
71043;BME280;58696;52.134;5.500;2023-02-28T09:06:10;103379.19;;;6.33;61.23
71043;BME280;58696;52.134;5.500;2023-02-28T09:08:40;103378.13;;;6.79;58.39
71043;BME280;58696;52.134;5.500;2023-02-28T09:11:12;103386.00;;;6.19;59.12
71043;BME280;58696;52.134;5.500;2023-02-28T09:13:39;103382.63;;;5.74;59.21
71043;BME280;58696;52.134;5.500;2023-02-28T09:16:15;103390.47;;;5.71;58.39
71043;BME280;58696;52.134;5.500;2023-02-28T09:18:44;103392.31;;;5.37;60.28
71043;BME280;58696;52.134;5.500;2023-02-28T09:21:13;103391.09;;;5.44;59.30
71043;BME280;58696;52.134;5.500;2023-02-28T09:23:43;103393.19;;;5.68;57.18
71043;BME280;58696;52.134;5.500;2023-02-28T09:26:19;103396.84;;;5.48;56.50
71043;BME280;58696;52.134;5.500;2023-02-28T09:28:49;103390.75;;;5.80;55.76
71043;BME280;58696;52.134;5.500;2023-02-28T09:31:23;103394.59;;;5.58;54.61
71043;BME280;58696;52.134;5.500;2023-02-28T09:33:53;103393.81;;;5.25;54.91
71043;BME280;58696;52.134;5.500;2023-02-28T09:36:20;103397.63;;;5.03;55.45
71043;BME280;58696;52.134;5.500;2023-02-28T09:38:50;103405.50;;;4.98;55.70
71043;BME280;58696;52.134;5.500;2023-02-28T09:41:24;103395.91;;;5.19;54.05
71043;BME280;58696;52.134;5.500;2023-02-28T09:43:55;103396.50;;;5.84;52.56
71043;BME280;58696;52.134;5.500;2023-02-28T09:49:02;103399.50;;;5.91;52.90
71043;BME280;58696;52.134;5.500;2023-02-28T09:51:45;103395.78;;;5.82;51.56
71043;BME280;58696;52.134;5.500;2023-02-28T09:54:21;103398.22;;;5.99;51.45
71043;BME280;58696;52.134;5.500;2023-02-28T09:59:29;103387.47;;;6.51;47.35
71043;BME280;58696;52.134;5.500;2023-02-28T10:07:36;103393.56;;;6.77;45.62
71043;BME280;58696;52.134;5.500;2023-02-28T10:10:29;103384.78;;;6.81;46.10
71043;BME280;58696;52.134;5.500;2023-02-28T10:13:00;103383.81;;;6.55;47.70
71043;BME280;58696;52.134;5.500;2023-02-28T10:15:33;103387.84;;;6.59;46.02
71043;BME280;58696;52.134;5.500;2023-02-28T10:18:12;103381.31;;;6.82;46.65
71043;BME280;58696;52.134;5.500;2023-02-28T10:20:41;103385.94;;;6.49;47.55
71043;BME280;58696;52.134;5.500;2023-02-28T10:23:15;103379.72;;;6.10;47.59
71043;BME280;58696;52.134;5.500;2023-02-28T10:25:47;103380.63;;;6.23;48.06
71043;BME280;58696;52.134;5.500;2023-02-28T10:28:16;103375.34;;;6.41;45.02
71043;BME280;58696;52.134;5.500;2023-02-28T10:30:49;103377.16;;;6.39;46.70
71043;BME280;58696;52.134;5.500;2023-02-28T10:33:23;103378.22;;;6.63;46.47
71043;BME280;58696;52.134;5.500;2023-02-28T10:35:53;103378.00;;;6.95;46.39
71043;BME280;58696;52.134;5.500;2023-02-28T10:38:24;103380.84;;;7.17;46.10
71043;BME280;58696;52.134;5.500;2023-02-28T10:41:10;103386.97;;;6.88;46.83
71043;BME280;58696;52.134;5.500;2023-02-28T10:43:41;103381.03;;;6.87;47.46
71043;BME280;58696;52.134;5.500;2023-02-28T10:46:16;103382.34;;;6.80;44.90
71043;BME280;58696;52.134;5.500;2023-02-28T10:49:03;103374.75;;;6.78;46.82
71043;BME280;58696;52.134;5.500;2023-02-28T10:51:39;103372.59;;;6.99;45.91
71043;BME280;58696;52.134;5.500;2023-02-28T10:54:16;103370.28;;;6.82;45.49
71043;BME280;58696;52.134;5.500;2023-02-28T10:56:42;103381.91;;;7.00;43.06
71043;BME280;58696;52.134;5.500;2023-02-28T11:01:45;103361.00;;;7.08;43.96
71043;BME280;58696;52.134;5.500;2023-02-28T11:07:00;103359.91;;;6.98;41.68
71043;BME280;58696;52.134;5.500;2023-02-28T11:09:38;103356.13;;;6.91;43.41
71043;BME280;58696;52.134;5.500;2023-02-28T11:14:52;103352.25;;;6.98;42.58
71043;BME280;58696;52.134;5.500;2023-02-28T11:17:22;103351.03;;;6.76;40.62
71043;BME280;58696;52.134;5.500;2023-02-28T11:19:53;103348.09;;;7.09;44.31
71043;BME280;58696;52.134;5.500;2023-02-28T11:22:24;103347.25;;;7.36;44.47
71043;BME280;58696;52.134;5.500;2023-02-28T11:25:00;103351.81;;;7.71;43.76
71043;BME280;58696;52.134;5.500;2023-02-28T11:27:43;103342.94;;;7.89;41.80
71043;BME280;58696;52.134;5.500;2023-02-28T11:32:57;103341.34;;;7.48;40.63
71043;BME280;58696;52.134;5.500;2023-02-28T11:35:36;103347.38;;;7.34;40.04
71043;BME280;58696;52.134;5.500;2023-02-28T11:38:09;103345.63;;;7.35;41.59
71043;BME280;58696;52.134;5.500;2023-02-28T11:43:50;103327.38;;;7.27;40.33
71043;BME280;58696;52.134;5.500;2023-02-28T11:46:40;103321.50;;;7.52;39.88
71043;BME280;58696;52.134;5.500;2023-02-28T12:03:27;103322.59;;;8.37;41.16
71043;BME280;58696;52.134;5.500;2023-02-28T12:06:04;103320.13;;;8.48;41.70
71043;BME280;58696;52.134;5.500;2023-02-28T12:09:02;103317.38;;;8.26;40.25
71043;BME280;58696;52.134;5.500;2023-02-28T12:28:51;103298.63;;;8.25;36.66
71043;BME280;58696;52.134;5.500;2023-02-28T12:31:23;103292.84;;;8.47;38.13
71043;BME280;58696;52.134;5.500;2023-02-28T12:34:00;103297.75;;;8.01;37.35
71043;BME280;58696;52.134;5.500;2023-02-28T12:36:38;103296.38;;;8.21;37.73
71043;BME280;58696;52.134;5.500;2023-02-28T12:39:11;103300.09;;;8.16;38.19
71043;BME280;58696;52.134;5.500;2023-02-28T12:42:24;103309.78;;;8.24;37.96
71043;BME280;58696;52.134;5.500;2023-02-28T12:44:50;103292.41;;;8.16;36.86
71043;BME280;58696;52.134;5.500;2023-02-28T12:47:18;103296.69;;;8.29;39.49
71043;BME280;58696;52.134;5.500;2023-02-28T12:49:50;103283.81;;;8.78;40.20
71043;BME280;58696;52.134;5.500;2023-02-28T12:55:25;103275.38;;;8.65;37.63
71043;BME280;58696;52.134;5.500;2023-02-28T13:09:17;103277.88;;;7.53;38.87
71043;BME280;58696;52.134;5.500;2023-02-28T13:11:53;103267.22;;;8.10;39.53
71043;BME280;58696;52.134;5.500;2023-02-28T13:19:33;103263.06;;;7.84;37.89
71043;BME280;58696;52.134;5.500;2023-02-28T13:22:01;103264.75;;;8.09;38.46
71043;BME280;58696;52.134;5.500;2023-02-28T13:24:44;103258.03;;;7.95;36.86
71043;BME280;58696;52.134;5.500;2023-02-28T13:29:54;103251.41;;;7.67;36.51
71043;BME280;58696;52.134;5.500;2023-02-28T13:32:34;103255.97;;;7.49;38.07
71043;BME280;58696;52.134;5.500;2023-02-28T13:37:35;103255.16;;;7.49;36.56
71043;BME280;58696;52.134;5.500;2023-02-28T13:47:41;103250.34;;;7.70;37.27
71043;BME280;58696;52.134;5.500;2023-02-28T13:50:38;103245.22;;;7.95;40.21
71043;BME280;58696;52.134;5.500;2023-02-28T14:01:35;103231.84;;;8.15;38.10
71043;BME280;58696;52.134;5.500;2023-02-28T14:06:55;103228.31;;;7.93;37.90
71043;BME280;58696;52.134;5.500;2023-02-28T14:09:38;103226.41;;;7.83;37.47
71043;BME280;58696;52.134;5.500;2023-02-28T14:20:57;103222.88;;;8.34;39.30
71043;BME280;58696;52.134;5.500;2023-02-28T14:23:57;103217.63;;;7.99;36.66
71043;BME280;58696;52.134;5.500;2023-02-28T14:37:43;103211.44;;;7.90;38.03
71043;BME280;58696;52.134;5.500;2023-02-28T14:40:38;103212.91;;;7.43;37.68
71043;BME280;58696;52.134;5.500;2023-02-28T14:43:19;103211.78;;;7.73;38.67
71043;BME280;58696;52.134;5.500;2023-02-28T14:45:53;103210.06;;;7.97;39.24
71043;BME280;58696;52.134;5.500;2023-02-28T14:48:21;103210.81;;;7.86;38.03
71043;BME280;58696;52.134;5.500;2023-02-28T14:50:58;103201.91;;;7.79;37.84
71043;BME280;58696;52.134;5.500;2023-02-28T14:53:36;103203.81;;;7.52;38.78
71043;BME280;58696;52.134;5.500;2023-02-28T14:56:19;103205.97;;;7.45;39.24
71043;BME280;58696;52.134;5.500;2023-02-28T14:58:54;103209.53;;;7.43;40.58
71043;BME280;58696;52.134;5.500;2023-02-28T15:01:25;103204.25;;;7.82;40.34
71043;BME280;58696;52.134;5.500;2023-02-28T15:04:04;103202.31;;;7.86;38.68
71043;BME280;58696;52.134;5.500;2023-02-28T15:06:32;103212.19;;;7.41;39.37
71043;BME280;58696;52.134;5.500;2023-02-28T15:09:18;103203.91;;;7.37;39.78
71043;BME280;58696;52.134;5.500;2023-02-28T15:11:49;103207.47;;;7.48;39.49
71043;BME280;58696;52.134;5.500;2023-02-28T15:14:20;103201.53;;;7.47;38.91
71043;BME280;58696;52.134;5.500;2023-02-28T15:16:56;103202.88;;;7.15;38.51
71043;BME280;58696;52.134;5.500;2023-02-28T15:19:32;103209.19;;;6.96;37.75
71043;BME280;58696;52.134;5.500;2023-02-28T15:22:15;103211.28;;;6.77;37.97
71043;BME280;58696;52.134;5.500;2023-02-28T15:24:46;103212.59;;;6.70;38.92
71043;BME280;58696;52.134;5.500;2023-02-28T15:27:20;103208.97;;;6.87;39.31
71043;BME280;58696;52.134;5.500;2023-02-28T15:29:50;103209.66;;;6.89;39.40
71043;BME280;58696;52.134;5.500;2023-02-28T15:34:57;103213.94;;;6.75;39.60
71043;BME280;58696;52.134;5.500;2023-02-28T15:37:38;103221.41;;;6.78;40.01
71043;BME280;58696;52.134;5.500;2023-02-28T15:40:13;103203.44;;;6.80;38.46
71043;BME280;58696;52.134;5.500;2023-02-28T15:42:57;103206.75;;;6.68;38.75
71043;BME280;58696;52.134;5.500;2023-02-28T15:45:38;103210.13;;;6.68;39.47
71043;BME280;58696;52.134;5.500;2023-02-28T15:48:17;103201.94;;;6.63;40.04
71043;BME280;58696;52.134;5.500;2023-02-28T15:50:48;103197.97;;;6.59;39.27
71043;BME280;58696;52.134;5.500;2023-02-28T15:53:19;103195.78;;;6.53;38.83
71043;BME280;58696;52.134;5.500;2023-02-28T15:56:02;103197.47;;;6.40;39.07
71043;BME280;58696;52.134;5.500;2023-02-28T15:58:31;103198.03;;;6.30;40.17
71043;BME280;58696;52.134;5.500;2023-02-28T16:01:01;103197.88;;;6.19;40.26
71043;BME280;58696;52.134;5.500;2023-02-28T16:03:46;103204.09;;;6.15;40.42
71043;BME280;58696;52.134;5.500;2023-02-28T16:06:24;103197.34;;;6.14;40.49